Time;durP1;ratioP1;P1;durP2;ratioP2;P2;SDS_P1;SDS_P2;PMS_P1;PMS_P2;Temp;Humidity;BMP_temperature;BMP_pressure;BME280_temperature;BME280_humidity;BME280_pressure;Samples;Min_cycle;Max_cycle;Signal;HPM_P1;HPM_P2
2022/01/18 00:01:53;;;;;;;5.40;2.40;;;;;;;1.11;56.14;100534.85;107154;1250;72058;-72
2022/01/18 00:04:22;;;;;;;5.30;2.00;;;;;;;1.16;55.67;100535.88;107280;1250;69385;-72
2022/01/18 00:06:53;;;;;;;5.90;2.30;;;;;;;1.24;55.16;100531.48;107266;1250;71694;-70
2022/01/18 00:09:25;;;;;;;3.50;2.00;;;;;;;1.27;54.67;100544.73;107141;1250;74961;-71
2022/01/18 00:12:13;;;;;;;4.30;2.10;;;;;;;1.31;54.66;100532.77;107199;1249;60964;-72
2022/01/18 00:14:54;;;;;;;5.60;2.00;;;;;;;1.33;54.67;100543.98;107166;1250;61585;-71
2022/01/18 00:17:40;;;;;;;2.80;1.90;;;;;;;1.30;54.99;100554.71;107200;1252;71441;-70
2022/01/18 00:20:17;;;;;;;8.90;2.40;;;;;;;1.34;55.21;100571.77;107177;1250;71421;-71
2022/01/18 00:22:46;;;;;;;6.10;2.30;;;;;;;1.35;55.25;100556.12;107082;1252;69475;-71
2022/01/18 00:25:18;;;;;;;5.50;2.60;;;;;;;1.34;55.10;100556.84;107029;1252;72939;-71
2022/01/18 00:27:47;;;;;;;5.40;2.40;;;;;;;1.28;55.22;100565.27;107138;1250;59132;-69
2022/01/18 00:30:52;;;;;;;4.20;1.90;;;;;;;1.24;55.52;100573.51;107121;1250;61760;-74
2022/01/18 00:33:20;;;;;;;6.20;2.60;;;;;;;1.16;55.85;100570.70;107195;1250;73462;-73
2022/01/18 00:36:00;;;;;;;4.00;2.30;;;;;;;1.15;56.07;100581.55;108732;1250;70556;-73
2022/01/18 00:38:47;;;;;;;6.70;2.30;;;;;;;1.17;56.09;100583.01;107155;1250;69293;-71
2022/01/18 00:41:20;;;;;;;6.30;2.30;;;;;;;1.16;56.29;100602.26;107148;1250;74947;-70
2022/01/18 00:43:49;;;;;;;5.90;2.20;;;;;;;1.17;56.46;100595.20;109433;1250;60934;-71
2022/01/18 00:46:18;;;;;;;7.90;2.10;;;;;;;1.12;56.80;100604.81;109489;1250;59372;-71
2022/01/18 00:48:47;;;;;;;3.60;1.90;;;;;;;1.13;56.97;100604.77;109315;1250;72399;-72
2022/01/18 00:51:16;;;;;;;5.50;2.50;;;;;;;1.15;57.30;100638.13;109374;1250;70396;-71
2022/01/18 00:53:46;;;;;;;5.50;2.50;;;;;;;1.19;57.39;100618.95;109439;1248;68085;-71
2022/01/18 00:58:47;;;;;;;8.50;2.60;;;;;;;1.18;58.14;100620.73;107077;1250;59056;-72
2022/01/18 01:01:18;;;;;;;6.30;2.70;;;;;;;1.11;58.95;100633.98;107028;1252;61254;-72
2022/01/18 01:03:48;;;;;;;5.90;2.30;;;;;;;1.11;59.53;100625.25;107062;1250;75214;-73
2022/01/18 01:06:17;;;;;;;6.90;2.90;;;;;;;1.08;60.54;100621.92;106979;1252;72634;-70
2022/01/18 01:08:46;;;;;;;9.40;2.80;;;;;;;0.96;61.20;100634.35;107514;1252;71351;-72
2022/01/18 01:11:16;;;;;;;9.00;3.00;;;;;;;0.94;62.06;100638.20;107238;1252;74243;-72
2022/01/18 01:13:49;;;;;;;2.40;1.60;;;;;;;0.80;62.70;100639.69;107035;1252;59212;-73
2022/01/18 01:16:44;;;;;;;4.80;2.60;;;;;;;0.68;64.23;100657.54;106957;1252;61283;-74
2022/01/18 01:19:31;;;;;;;6.70;2.40;;;;;;;0.64;65.92;100686.46;106982;1252;71756;-72
2022/01/18 01:43:19;;;;;;;8.50;3.20;;;;;;;0.37;67.11;100676.02;106907;1253;68841;-69
2022/01/18 01:45:51;;;;;;;3.70;2.30;;;;;;;0.41;66.43;100684.12;106900;1252;73953;-70
2022/01/18 01:48:23;;;;;;;7.10;2.50;;;;;;;0.42;66.28;100678.26;106892;1252;60163;-68
2022/01/18 01:51:05;;;;;;;4.30;2.50;;;;;;;0.47;65.71;100704.48;107015;1251;61692;-70
2022/01/18 01:53:34;;;;;;;7.90;3.20;;;;;;;0.59;64.30;100689.20;106978;1252;74256;-70
2022/01/18 01:56:04;;;;;;;6.80;2.40;;;;;;;0.60;63.74;100698.27;107133;1251;70607;-71
2022/01/18 01:58:33;;;;;;;3.80;2.30;;;;;;;0.70;62.00;100683.55;107068;1252;68864;-70
2022/01/18 02:01:06;;;;;;;7.30;3.20;;;;;;;0.78;60.92;100693.05;106946;1252;72698;-70
2022/01/18 02:03:35;;;;;;;3.60;2.30;;;;;;;0.85;60.15;100707.61;107157;1251;60335;-71
2022/01/18 02:06:05;;;;;;;6.50;2.20;;;;;;;0.92;59.44;100726.38;107008;1250;60599;-74
2022/01/18 02:08:34;;;;;;;5.30;2.50;;;;;;;1.02;58.51;100719.20;107233;1250;73706;-74
2022/01/18 02:11:03;;;;;;;7.10;2.40;;;;;;;1.04;57.87;100726.52;107213;1250;71086;-72
2022/01/18 02:13:33;;;;;;;6.70;2.30;;;;;;;1.07;57.68;100707.52;107277;1250;70976;-71
2022/01/18 02:24:14;;;;;;;7.20;2.60;;;;;;;1.06;55.99;100740.16;107319;1252;72863;-74
2022/01/18 02:26:43;;;;;;;5.80;2.40;;;;;;;1.03;55.65;100756.73;107243;1250;69675;-70
2022/01/18 02:29:13;;;;;;;6.60;2.00;;;;;;;1.02;55.25;100741.83;107269;1252;69048;-70
2022/01/18 02:31:42;;;;;;;8.80;2.20;;;;;;;0.97;55.68;100763.61;107363;1250;73912;-69
2022/01/18 02:34:19;;;;;;;9.20;2.40;;;;;;;0.94;55.18;100751.18;107372;1249;58957;-73
2022/01/18 02:36:49;;;;;;;6.70;2.60;;;;;;;0.91;54.96;100774.43;107373;1250;59690;-74
2022/01/18 02:39:25;;;;;;;6.10;2.10;;;;;;;0.85;55.06;100795.72;107241;1250;73870;-70
2022/01/18 02:42:03;;;;;;;5.20;2.30;;;;;;;0.79;55.01;100801.54;107367;1250;71014;-71
2022/01/18 02:44:35;;;;;;;7.20;2.10;;;;;;;0.76;54.84;100803.17;107405;1250;69870;-69
2022/01/18 02:47:05;;;;;;;3.40;2.10;;;;;;;0.69;55.05;100806.31;107339;1249;75225;-70
2022/01/18 02:49:42;;;;;;;4.00;2.40;;;;;;;0.66;54.90;100810.54;107225;1251;58988;-72
2022/01/18 02:52:12;;;;;;;4.50;2.20;;;;;;;0.65;54.54;100816.20;107333;1250;61350;-70
2022/01/18 02:54:41;;;;;;;4.80;1.60;;;;;;;0.60;54.74;100820.64;107390;1250;72222;-71
2022/01/18 02:57:13;;;;;;;5.60;2.20;;;;;;;0.57;54.39;100832.70;107289;1250;70935;-70
2022/01/18 02:59:48;;;;;;;7.50;2.00;;;;;;;0.55;53.95;100820.42;107326;1250;68720;-70
2022/01/18 03:05:17;;;;;;;3.30;1.60;;;;;;;0.54;53.55;100853.38;107289;1250;60582;-71
2022/01/18 03:07:46;;;;;;;6.40;2.30;;;;;;;0.53;53.16;100852.02;107234;1248;61169;-70
2022/01/18 03:10:16;;;;;;;3.90;1.50;;;;;;;0.47;53.36;100849.63;107229;1250;74508;-72
2022/01/18 03:12:46;;;;;;;8.20;1.70;;;;;;;0.46;53.04;100870.41;107271;1250;71469;-75
2022/01/18 03:15:15;;;;;;;4.30;1.90;;;;;;;0.46;52.77;100883.23;107258;1250;69677;-73
2022/01/18 03:17:44;;;;;;;5.30;1.80;;;;;;;0.44;52.75;100887.06;107251;1250;73113;-72
2022/01/18 03:20:17;;;;;;;2.40;1.60;;;;;;;0.40;52.70;100896.62;107285;1250;59392;-73
2022/01/18 03:22:49;;;;;;;5.20;1.80;;;;;;;0.35;52.66;100900.34;107339;1249;62390;-70
2022/01/18 03:25:29;;;;;;;4.60;2.00;;;;;;;0.30;52.99;100898.23;107285;1250;73249;-71
2022/01/18 03:28:05;;;;;;;4.80;1.80;;;;;;;0.27;53.06;100906.05;107283;1250;73779;-71
2022/01/18 03:30:38;;;;;;;2.90;1.50;;;;;;;0.23;53.23;100896.56;107315;1250;67941;-72
2022/01/18 03:33:11;;;;;;;4.70;1.80;;;;;;;0.19;53.39;100903.17;107282;1249;72005;-71
2022/01/18 03:35:41;;;;;;;8.40;2.00;;;;;;;0.16;53.19;100896.39;107217;1249;60496;-71
2022/01/18 03:38:12;;;;;;;5.50;1.70;;;;;;;0.10;53.67;100892.27;107286;1249;59407;-73
2022/01/18 03:40:41;;;;;;;4.40;1.80;;;;;;;0.07;53.84;100910.17;107346;1250;73985;-73
2022/01/18 03:43:12;;;;;;;4.90;2.10;;;;;;;0.01;53.85;100914.92;107308;1250;71198;-70
2022/01/18 03:45:45;;;;;;;4.40;1.90;;;;;;;0.02;53.85;100935.11;107405;1250;71027;-70
2022/01/18 03:48:52;;;;;;;;;;;;;;;-0.00;54.08;100937.06;107310;1249;74857;-72
2022/01/18 03:51:14;;;;;;;6.50;1.90;;;;;;;-0.04;54.56;100955.30;107330;1250;60212;-73
2022/01/18 03:53:44;;;;;;;8.80;2.00;;;;;;;-0.09;54.95;100968.61;107296;1249;61838;-72
2022/01/18 03:56:14;;;;;;;3.60;1.70;;;;;;;-0.11;55.03;100976.89;107272;1250;75208;-71
2022/01/18 03:58:43;;;;;;;4.60;1.60;;;;;;;-0.13;55.13;100977.94;107212;1249;73190;-72
2022/01/18 04:01:12;;;;;;;11.70;2.40;;;;;;;-0.13;55.17;100977.95;107205;1250;69296;-70
2022/01/18 04:03:41;;;;;;;8.40;2.50;;;;;;;-0.15;55.15;100981.44;107323;1249;73067;-71
2022/01/18 04:06:11;;;;;;;7.10;1.80;;;;;;;-0.14;55.19;100981.40;107272;1250;60991;-70
2022/01/18 04:08:40;;;;;;;5.50;1.70;;;;;;;-0.14;55.36;100982.27;107282;1250;61657;-73
2022/01/18 04:11:09;;;;;;;5.40;1.70;;;;;;;-0.19;55.33;100988.89;107244;1249;74731;-74
2022/01/18 04:13:38;;;;;;;4.70;1.80;;;;;;;-0.21;55.63;101001.42;107351;1250;71249;-69
2022/01/18 04:16:07;;;;;;;6.10;2.20;;;;;;;-0.19;55.52;101004.30;107255;1250;71272;-68
2022/01/18 04:18:52;;;;;;;5.20;2.10;;;;;;;-0.15;55.71;101003.84;107330;1250;73445;-70
2022/01/18 04:26:58;;;;;;;6.00;2.20;;;;;;;-0.11;55.13;101016.94;107303;1250;71402;-71
2022/01/18 04:29:27;;;;;;;7.50;2.10;;;;;;;-0.10;55.03;101019.48;107212;1250;71179;-70
2022/01/18 04:31:56;;;;;;;9.00;2.20;;;;;;;-0.11;54.71;101035.08;107118;1250;69671;-69
2022/01/18 04:34:25;;;;;;;3.60;2.00;;;;;;;-0.15;54.84;101040.83;107091;1250;72581;-70
2022/01/18 04:36:54;;;;;;;10.90;2.60;;;;;;;-0.10;54.78;101049.77;107086;1249;59089;-68
2022/01/18 04:39:23;;;;;;;8.10;2.60;;;;;;;-0.11;54.63;101057.17;106963;1251;59504;-74
2022/01/18 04:41:52;;;;;;;10.60;2.60;;;;;;;-0.08;54.68;101073.38;106958;1249;71887;-74
2022/01/18 04:49:55;;;;;;;5.20;2.30;;;;;;;0.00;54.43;101075.42;107141;1250;74194;-73
2022/01/18 04:52:24;;;;;;;6.50;2.10;;;;;;;0.01;54.29;101099.55;107020;1250;62095;-73
2022/01/18 04:54:59;;;;;;;7.90;2.40;;;;;;;-0.04;54.55;101088.69;107079;1250;61162;-72
2022/01/18 05:00:16;;;;;;;8.10;2.70;;;;;;;-0.08;54.67;101099.75;107058;1249;71373;-72
2022/01/18 05:02:47;;;;;;;4.40;2.20;;;;;;;0.01;54.54;101126.78;107186;1250;68988;-74
2022/01/18 05:05:27;;;;;;;4.20;2.10;;;;;;;-0.05;54.75;101106.35;106992;1250;73164;-73
2022/01/18 05:08:05;;;;;;;4.40;1.90;;;;;;;-0.09;54.74;101113.45;107068;1250;59224;-71
2022/01/18 05:10:33;;;;;;;7.30;2.40;;;;;;;-0.15;54.84;101115.45;107115;1250;60932;-73
2022/01/18 05:13:12;;;;;;;6.60;2.00;;;;;;;-0.14;54.65;101131.55;107164;1250;73513;-71
2022/01/18 05:15:48;;;;;;;5.90;2.20;;;;;;;-0.13;54.66;101134.61;107199;1250;70395;-75
2022/01/18 05:21:23;;;;;;;5.10;2.00;;;;;;;-0.09;54.57;101134.17;107127;1250;72568;-75
2022/01/18 05:23:54;;;;;;;5.40;2.30;;;;;;;-0.15;54.66;101142.34;107155;1249;60339;-72
2022/01/18 05:26:26;;;;;;;5.40;1.90;;;;;;;-0.15;54.70;101145.95;107180;1250;62322;-71
2022/01/18 05:28:57;;;;;;;6.80;2.20;;;;;;;-0.12;54.63;101143.81;107332;1251;74366;-73
2022/01/18 05:31:26;;;;;;;3.70;2.00;;;;;;;-0.16;54.95;101149.05;107203;1250;72024;-72
2022/01/18 05:33:55;;;;;;;5.00;1.70;;;;;;;-0.17;54.76;101169.96;107294;1250;69613;-72
2022/01/18 05:36:24;;;;;;;10.20;2.80;;;;;;;-0.15;54.74;101171.28;107296;1250;72294;-73
2022/01/18 05:38:53;;;;;;;3.60;2.00;;;;;;;-0.16;54.75;101164.80;107319;1250;58927;-73
2022/01/18 05:41:22;;;;;;;6.10;2.70;;;;;;;-0.18;54.87;101174.43;107307;1250;59709;-72
2022/01/18 05:43:52;;;;;;;4.20;1.80;;;;;;;-0.21;55.22;101180.31;107276;1250;72497;-70
2022/01/18 05:46:22;;;;;;;4.30;2.10;;;;;;;-0.16;55.21;101183.63;107273;1249;72190;-67
2022/01/18 05:48:51;;;;;;;5.90;2.20;;;;;;;-0.14;54.84;101181.38;107337;1250;69755;-72
2022/01/18 05:51:20;;;;;;;6.00;2.10;;;;;;;-0.15;54.75;101182.58;107246;1250;74596;-69
2022/01/18 05:53:49;;;;;;;8.70;2.80;;;;;;;-0.14;54.85;101188.55;107289;1250;60895;-71
2022/01/18 05:56:18;;;;;;;4.60;2.00;;;;;;;-0.13;54.93;101201.71;107278;1250;60311;-71
2022/01/18 05:58:49;;;;;;;6.30;2.40;;;;;;;-0.12;54.72;101188.53;107359;1248;72626;-69
2022/01/18 06:01:26;;;;;;;4.70;2.10;;;;;;;-0.14;54.73;101200.89;107318;1250;73618;-68
2022/01/18 06:09:15;;;;;;;7.00;2.80;;;;;;;-0.04;54.73;101223.45;107074;1249;60219;-69
2022/01/18 06:11:44;;;;;;;6.30;2.80;;;;;;;0.00;54.36;101226.27;107008;1250;58975;-69
2022/01/18 06:14:13;;;;;;;4.60;2.30;;;;;;;0.02;54.42;101236.69;107202;1250;70898;-68
2022/01/18 06:16:42;;;;;;;8.70;3.00;;;;;;;0.01;54.18;101231.40;107065;1250;70699;-69
2022/01/18 06:19:11;;;;;;;8.40;2.90;;;;;;;0.02;54.51;101238.76;106991;1253;67717;-68
2022/01/18 06:21:40;;;;;;;6.40;2.60;;;;;;;-0.02;54.40;101252.52;107096;1250;72984;-66
2022/01/18 06:24:11;;;;;;;3.90;2.40;;;;;;;0.03;54.13;101253.97;107078;1249;58969;-69
2022/01/18 06:27:00;;;;;;;6.70;2.90;;;;;;;0.03;54.21;101254.48;107184;1250;62286;-69
2022/01/18 06:29:30;;;;;;;8.70;2.80;;;;;;;0.06;54.31;101271.37;107270;1251;73778;-68
2022/01/18 06:31:59;;;;;;;6.40;2.70;;;;;;;0.10;54.31;101270.77;107508;1250;70373;-68
2022/01/18 06:34:28;;;;;;;8.20;2.60;;;;;;;0.18;53.87;101271.83;107497;1250;69018;-75
2022/01/18 06:36:57;;;;;;;5.50;2.60;;;;;;;0.10;53.85;101287.04;107506;1250;74837;-73
2022/01/18 06:39:26;;;;;;;9.10;2.30;;;;;;;0.13;53.89;101289.05;107410;1250;59689;-70
2022/01/18 06:41:56;;;;;;;4.00;2.10;;;;;;;0.20;53.46;101278.27;107367;1250;60076;-72
2022/01/18 06:44:25;;;;;;;9.70;3.00;;;;;;;0.21;53.59;101292.46;107394;1250;73851;-72
2022/01/18 06:46:54;;;;;;;4.40;2.50;;;;;;;0.19;54.10;101295.60;107277;1250;72043;-70
2022/01/18 06:49:23;;;;;;;9.10;2.70;;;;;;;0.30;53.60;101302.23;107266;1250;68721;-73
2022/01/18 06:51:52;;;;;;;3.80;2.10;;;;;;;0.31;53.46;101300.85;107216;1250;72942;-71
2022/01/18 06:54:21;;;;;;;7.20;2.60;;;;;;;0.25;53.27;101307.66;107266;1251;58950;-71
2022/01/18 06:56:50;;;;;;;8.60;2.70;;;;;;;0.22;53.37;101300.67;107113;1250;59694;-72
2022/01/18 06:59:19;;;;;;;7.20;2.80;;;;;;;0.24;53.38;101312.30;109526;1250;73639;-70
2022/01/18 07:01:48;;;;;;;6.60;2.90;;;;;;;0.27;53.25;101307.43;107383;1251;70320;-70
2022/01/18 07:04:17;;;;;;;5.00;2.70;;;;;;;0.35;52.71;101298.73;107251;1250;69906;-68
2022/01/18 07:06:47;;;;;;;8.10;2.80;;;;;;;0.35;52.71;101317.05;107151;1250;73657;-72
2022/01/18 07:09:22;;;;;;;4.20;2.10;;;;;;;0.37;52.71;101325.58;107216;1250;60946;-72
2022/01/18 07:11:54;;;;;;;12.60;3.00;;;;;;;0.37;52.44;101328.48;107378;1250;60391;-72
2022/01/18 07:14:23;;;;;;;8.60;2.80;;;;;;;0.36;52.43;101322.68;107083;1251;70893;-71
2022/01/18 07:16:52;;;;;;;10.20;3.30;;;;;;;0.42;52.36;101322.56;109463;1250;70731;-70
2022/01/18 07:19:21;;;;;;;6.00;2.70;;;;;;;0.41;52.24;101322.23;107236;1250;69128;-71
2022/01/18 07:21:51;;;;;;;12.60;3.00;;;;;;;0.51;51.74;101318.27;106729;1250;574057;-72
2022/01/18 07:24:36;;;;;;;8.50;3.20;;;;;;;0.54;51.43;101324.70;107272;1249;60583;-73
2022/01/18 07:27:08;;;;;;;6.60;2.70;;;;;;;0.60;51.32;101336.23;107265;1250;62190;-73
2022/01/18 07:29:41;;;;;;;5.00;2.30;;;;;;;0.63;50.96;101333.77;107329;1251;72281;-73
2022/01/18 07:32:11;;;;;;;4.50;2.00;;;;;;;0.65;50.81;101329.79;107303;1250;71920;-71
2022/01/18 07:34:49;;;;;;;5.50;2.80;;;;;;;0.72;50.37;101340.77;107239;1250;67806;-72
2022/01/18 07:37:21;;;;;;;9.70;3.00;;;;;;;0.76;49.97;101323.71;107041;1250;73907;-74
2022/01/18 07:39:52;;;;;;;6.90;2.30;;;;;;;0.79;49.85;101336.51;107135;1250;60953;-68
2022/01/18 07:42:25;;;;;;;5.60;2.90;;;;;;;0.83;49.83;101328.00;106971;1251;61775;-71
2022/01/18 07:44:55;;;;;;;6.60;2.80;;;;;;;0.86;49.37;101330.17;107144;1250;74012;-72
2022/01/18 07:47:24;;;;;;;8.40;2.70;;;;;;;0.88;49.39;101335.98;107194;1251;70839;-73
2022/01/18 07:49:53;;;;;;;5.50;2.40;;;;;;;0.90;49.15;101330.26;107160;1250;69128;-73
2022/01/18 07:52:22;;;;;;;5.80;2.80;;;;;;;0.92;49.21;101330.38;107070;1250;71174;-73
2022/01/18 07:54:51;;;;;;;7.40;3.00;;;;;;;0.97;48.86;101335.92;107085;1250;59152;-73
2022/01/18 07:57:21;;;;;;;8.80;3.00;;;;;;;0.97;48.91;101355.15;107119;1250;59379;-75
2022/01/18 07:59:50;;;;;;;5.60;2.90;;;;;;;1.05;48.18;101339.71;107113;1249;73694;-71
2022/01/18 08:02:19;;;;;;;14.50;3.50;;;;;;;1.09;47.85;101357.80;107169;1250;70542;-72
2022/01/18 08:04:48;;;;;;;5.30;2.50;;;;;;;1.06;48.02;101356.15;107021;1250;69253;-73
2022/01/18 08:07:17;;;;;;;10.80;2.70;;;;;;;1.15;47.69;101353.20;107127;1250;72876;-71
2022/01/18 08:09:46;;;;;;;4.20;2.40;;;;;;;1.15;47.61;101379.26;107166;1251;59741;-72
2022/01/18 08:12:17;;;;;;;9.70;3.00;;;;;;;1.17;47.66;101374.09;107110;1250;60518;-71
2022/01/18 08:14:47;;;;;;;9.20;2.90;;;;;;;1.21;47.23;101364.55;107120;1250;73286;-71
2022/01/18 08:17:16;;;;;;;9.50;3.20;;;;;;;1.20;47.44;101385.85;107121;1250;72176;-73
2022/01/18 08:19:45;;;;;;;5.30;2.20;;;;;;;1.18;47.30;101388.80;107071;1250;68304;-71
2022/01/18 08:22:14;;;;;;;11.10;2.60;;;;;;;1.22;47.43;101403.33;107179;1250;72018;-70
2022/01/18 08:24:44;;;;;;;6.80;2.20;;;;;;;1.19;47.16;101402.69;107102;1251;61625;-74
2022/01/18 08:27:13;;;;;;;7.70;2.30;;;;;;;1.15;47.20;101414.27;107087;1250;62063;-73
2022/01/18 08:29:47;;;;;;;6.80;2.20;;;;;;;1.14;47.27;101407.95;107149;1250;73247;-72
2022/01/18 08:32:17;;;;;;;8.30;2.60;;;;;;;1.20;47.13;101416.91;107115;1251;73768;-72
2022/01/18 08:34:46;;;;;;;7.50;2.30;;;;;;;1.19;47.40;101404.23;107135;1251;69401;-73
2022/01/18 08:37:15;;;;;;;8.00;2.90;;;;;;;1.13;47.52;101422.20;107117;1250;71998;-69
2022/01/18 08:39:44;;;;;;;5.70;2.60;;;;;;;1.13;47.51;101412.77;107295;1246;59709;-73
2022/01/18 08:42:13;;;;;;;6.40;2.30;;;;;;;1.08;47.58;101411.34;107354;1250;60661;-72
2022/01/18 08:44:43;;;;;;;7.10;2.20;;;;;;;1.16;47.52;101410.33;107424;1248;73667;-70
2022/01/18 08:47:15;;;;;;;10.90;2.60;;;;;;;1.12;47.37;101408.52;107397;1250;72802;-74
2022/01/18 08:49:44;;;;;;;7.80;2.20;;;;;;;1.15;46.83;101411.53;107417;1249;69800;-67
2022/01/18 08:52:14;;;;;;;9.70;2.80;;;;;;;1.14;47.24;101424.06;107414;1250;72818;-74
2022/01/18 08:54:43;;;;;;;7.00;2.00;;;;;;;1.21;46.79;101431.98;107446;1248;59728;-70
2022/01/18 08:57:15;;;;;;;11.60;2.50;;;;;;;1.19;46.76;101421.23;107257;1250;60059;-71
2022/01/18 08:59:45;;;;;;;7.30;2.00;;;;;;;1.23;46.37;101429.02;107427;1249;72318;-72
2022/01/18 09:02:15;;;;;;;7.20;2.40;;;;;;;1.25;46.15;101423.48;107354;1250;70445;-72
2022/01/18 09:04:44;;;;;;;7.90;2.40;;;;;;;1.18;46.26;101407.16;107308;1251;68292;-70
2022/01/18 09:07:16;;;;;;;11.40;2.20;;;;;;;1.24;46.09;101408.06;107258;1250;72893;-71
2022/01/18 09:09:49;;;;;;;3.50;1.60;;;;;;;1.23;46.04;101413.05;107202;1250;61076;-71
2022/01/18 09:12:17;;;;;;;5.80;2.00;;;;;;;1.30;45.05;101443.11;107230;1252;62169;-71
2022/01/18 09:14:47;;;;;;;4.20;2.10;;;;;;;1.23;44.63;101414.45;107217;1252;72198;-70
2022/01/18 09:17:16;;;;;;;17.80;3.00;;;;;;;1.32;44.76;101418.16;107161;1253;73345;-70
2022/01/18 09:19:45;;;;;;;10.60;2.30;;;;;;;1.41;45.14;101411.96;107279;1251;71208;-72
2022/01/18 09:22:13;;;;;;;7.40;2.10;;;;;;;1.42;45.03;101413.32;107266;1251;74419;-73
2022/01/18 09:24:42;;;;;;;5.60;1.90;;;;;;;1.47;44.59;101426.23;107322;1251;60106;-70
2022/01/18 09:27:12;;;;;;;4.80;1.80;;;;;;;1.46;44.85;101436.05;107210;1251;61817;-73
2022/01/18 09:29:41;;;;;;;8.80;2.10;;;;;;;1.54;45.05;101401.86;107362;1249;73105;-71
2022/01/18 09:32:10;;;;;;;6.40;1.90;;;;;;;1.54;44.82;101450.80;107453;1251;70956;-73
2022/01/18 09:34:39;;;;;;;13.00;3.00;;;;;;;1.59;44.66;101415.15;107251;1251;68987;-75
2022/01/18 09:37:09;;;;;;;4.20;1.70;;;;;;;1.64;44.80;101398.89;107357;1251;74085;-74
2022/01/18 09:39:39;;;;;;;22.20;3.10;;;;;;;1.65;44.92;101399.73;107315;1250;62244;-74
2022/01/18 09:42:11;;;;;;;6.90;2.90;;;;;;;1.70;44.87;101395.14;107040;1251;59445;-69
2022/01/18 09:44:42;;;;;;;15.70;3.50;;;;;;;1.68;45.13;101418.02;106954;1251;73980;-70
2022/01/18 09:47:11;;;;;;;5.40;2.20;;;;;;;1.69;45.39;101404.27;107194;1250;71358;-73
2022/01/18 09:49:40;;;;;;;5.30;2.30;;;;;;;1.69;46.12;101403.76;107250;1250;70135;-70
2022/01/18 09:52:09;;;;;;;6.50;2.50;;;;;;;1.67;47.84;101407.41;107232;1250;72337;-71
2022/01/18 09:54:39;;;;;;;7.50;2.80;;;;;;;1.71;48.97;101415.19;107196;1250;58946;-69
2022/01/18 09:57:08;;;;;;;4.40;2.10;;;;;;;1.73;50.44;101432.48;107180;1251;60502;-73
2022/01/18 09:59:37;;;;;;;5.50;2.70;;;;;;;1.61;52.22;101441.54;107304;1250;73723;-73
2022/01/18 10:02:10;;;;;;;9.40;3.10;;;;;;;1.38;54.41;101436.22;107275;1249;73645;-73
2022/01/18 10:04:43;;;;;;;10.90;2.90;;;;;;;1.17;55.83;101428.14;107274;1251;70325;-72
2022/01/18 10:07:12;;;;;;;4.30;2.50;;;;;;;1.08;56.38;101418.21;107222;1250;74006;-70
2022/01/18 10:09:41;;;;;;;7.20;2.10;;;;;;;0.96;56.43;101421.36;107381;1250;60358;-72
2022/01/18 10:12:16;;;;;;;4.70;2.40;;;;;;;0.82;57.20;101409.15;107374;1251;59360;-70
2022/01/18 10:14:58;;;;;;;7.10;2.60;;;;;;;0.69;59.14;101427.08;107163;1251;73571;-70
2022/01/18 10:17:36;;;;;;;10.80;2.60;;;;;;;0.39;62.40;101451.14;107311;1250;72418;-71
2022/01/18 10:20:18;;;;;;;5.80;2.60;;;;;;;0.34;64.30;101407.88;107281;1249;71339;-71
2022/01/18 10:22:49;;;;;;;6.20;2.80;;;;;;;0.27;65.06;101409.70;107335;1250;74937;-72
2022/01/18 10:25:27;;;;;;;4.90;2.70;;;;;;;0.17;66.98;101422.06;107399;1248;58933;-73
2022/01/18 10:27:56;;;;;;;8.60;3.40;;;;;;;0.12;67.92;101408.28;107324;1247;59733;-72
2022/01/18 10:30:38;;;;;;;9.70;3.50;;;;;;;0.01;68.96;101412.76;107097;1250;73207;-69
2022/01/18 10:33:27;;;;;;;4.50;2.70;;;;;;;-0.06;69.85;101395.41;107118;1250;70358;-72
2022/01/18 10:36:14;;;;;;;8.10;3.20;;;;;;;-0.07;69.89;101403.30;107200;1251;70598;-73
2022/01/18 10:38:50;;;;;;;7.90;3.10;;;;;;;0.04;69.60;101408.25;107239;1250;74198;-71
2022/01/18 10:41:39;;;;;;;7.90;2.80;;;;;;;0.11;69.16;101397.51;107244;1249;58952;-70
2022/01/18 10:44:15;;;;;;;6.20;3.00;;;;;;;0.14;68.67;101397.11;107216;1250;58960;-69
2022/01/18 10:46:52;;;;;;;8.20;3.30;;;;;;;0.27;67.63;101393.97;107125;1251;72164;-72
2022/01/18 10:49:46;;;;;;;4.10;2.50;;;;;;;0.42;66.26;101394.17;107162;1250;70361;-70
2022/01/18 10:52:21;;;;;;;7.60;3.40;;;;;;;0.38;66.12;101383.64;107154;1250;69703;-71
2022/01/18 10:55:00;;;;;;;6.00;2.70;;;;;;;0.25;67.07;101407.19;107003;1251;74740;-71
2022/01/18 10:57:38;;;;;;;8.80;3.50;;;;;;;0.24;67.77;101392.63;107055;1251;60099;-73
2022/01/18 11:00:29;;;;;;;7.60;3.10;;;;;;;0.18;68.73;101400.47;107100;1251;61340;-71
2022/01/18 11:02:58;;;;;;;8.40;3.30;;;;;;;0.11;69.53;101410.86;107232;1250;71535;-72
2022/01/18 11:05:31;;;;;;;6.50;3.20;;;;;;;-0.12;71.04;101411.95;107240;1250;72617;-71
2022/01/18 11:08:03;;;;;;;10.00;3.20;;;;;;;-0.22;71.88;101420.33;107234;1250;69654;-70
2022/01/18 11:10:38;;;;;;;7.00;3.10;;;;;;;-0.17;71.92;101410.32;107281;1251;72906;-73
2022/01/18 11:13:34;;;;;;;4.80;2.60;;;;;;;0.01;70.62;101403.17;107244;1250;59830;-72
2022/01/18 11:16:13;;;;;;;4.00;1.70;;;;;;;0.40;69.28;101390.79;107112;1251;61197;-67
2022/01/18 11:18:47;;;;;;;6.20;2.20;;;;;;;0.64;69.01;101390.66;107057;1253;71579;-70
2022/01/18 11:21:19;;;;;;;9.00;2.90;;;;;;;0.99;68.11;101390.27;107195;1250;71481;-71
2022/01/18 11:23:48;;;;;;;5.50;2.40;;;;;;;1.35;65.35;101389.28;107081;1250;70483;-72
2022/01/18 11:26:19;;;;;;;5.30;3.10;;;;;;;1.35;64.55;101385.15;107153;1250;71826;-74
2022/01/18 11:28:55;;;;;;;6.90;2.50;;;;;;;1.56;63.67;101383.64;107111;1250;59153;-74
2022/01/18 11:31:24;;;;;;;8.80;3.00;;;;;;;1.90;62.62;101370.40;107151;1250;59249;-74
2022/01/18 11:34:00;;;;;;;11.50;3.10;;;;;;;1.99;60.49;101362.11;107190;1250;73048;-71
2022/01/18 11:36:38;;;;;;;6.70;2.30;;;;;;;1.92;60.17;101368.13;107025;1251;70982;-74
2022/01/18 11:39:11;;;;;;;10.20;3.60;;;;;;;2.22;58.15;101370.06;107080;1251;70931;-74
2022/01/18 11:41:39;;;;;;;5.50;2.50;;;;;;;2.54;55.50;101352.31;107027;1251;74480;-73
2022/01/18 11:44:18;;;;;;;7.80;2.80;;;;;;;2.78;52.08;101357.81;107242;1251;60188;-73
2022/01/18 11:46:52;;;;;;;6.00;2.30;;;;;;;2.60;51.19;101372.96;107169;1248;61730;-71
2022/01/18 11:49:30;;;;;;;5.90;2.40;;;;;;;2.54;50.04;101355.10;106943;1250;72987;-73
2022/01/18 11:52:09;;;;;;;12.20;6.00;;;;;;;2.38;51.67;101410.71;107016;1250;72290;-75
2022/01/18 11:57:26;;;;;;;4.60;2.40;;;;;;;1.77;53.44;101382.41;107129;1251;73022;-77
2022/01/18 12:00:18;;;;;;;5.40;2.70;;;;;;;1.84;52.95;101364.39;107115;1251;59914;-74
2022/01/18 12:02:49;;;;;;;7.00;2.40;;;;;;;1.95;52.19;101399.48;107183;1251;62223;-71
2022/01/18 12:05:20;;;;;;;4.90;2.50;;;;;;;1.89;52.54;101379.20;107178;1250;71438;-71
2022/01/18 12:07:57;;;;;;;6.50;2.50;;;;;;;2.05;52.08;101393.72;107121;1250;70653;-74
2022/01/18 12:10:38;;;;;;;12.80;3.10;;;;;;;2.61;51.12;101367.96;107323;1250;69733;-75
2022/01/18 12:13:11;;;;;;;9.10;2.90;;;;;;;2.99;49.61;101380.75;107170;1251;73737;-77
2022/01/18 12:15:45;;;;;;;10.10;3.20;;;;;;;3.05;49.75;101383.51;107152;1249;59671;-73
2022/01/18 12:18:28;;;;;;;5.40;2.40;;;;;;;3.05;49.49;101403.83;107161;1250;59519;-72
2022/01/18 12:21:00;;;;;;;9.60;3.00;;;;;;;3.09;48.14;101380.63;107245;1251;71155;-70
2022/01/18 12:23:49;;;;;;;8.20;3.00;;;;;;;3.21;48.00;101379.05;107270;1251;71431;-75
2022/01/18 12:26:46;;;;;;;9.80;3.50;;;;;;;2.78;48.58;101388.95;107417;1250;69432;-73
2022/01/18 12:30:14;;;;;;;;;;;;;;;;;;;;;
2022/01/18 12:32:56;;;;;;;10.90;3.60;;;;;;;2.99;48.28;101388.50;107083;1250;61366;-73
2022/01/18 12:35:27;;;;;;;5.40;2.30;;;;;;;3.19;47.63;101430.77;107239;1249;62375;-71
2022/01/18 12:37:56;;;;;;;6.40;2.40;;;;;;;3.09;47.82;101408.17;107101;1250;74214;-75
2022/01/18 12:40:28;;;;;;;8.10;3.10;;;;;;;2.85;48.10;101429.52;107047;1251;69485;-72
2022/01/18 12:45:33;;;;;;;;;;;;;;;2.16;51.22;101421.27;107070;1251;74527;-77
2022/01/18 12:48:09;;;;;;;22.00;3.20;;;;;;;1.89;52.74;101461.31;107161;1249;59301;-77
2022/01/18 12:50:58;;;;;;;9.90;3.20;;;;;;;1.85;52.76;101445.60;107257;1247;60482;-75
2022/01/18 12:53:36;;;;;;;13.30;2.90;;;;;;;2.21;52.65;101441.77;107457;1248;72696;-76